| Date | Time | Temp. (oF) | Dew Point (oF) | Rel. Hum. (%) | Press. (in.) | Wind Dir. | Wind Speed (mph) | Hourly Rainfall (in.) |
|
|---|---|---|---|---|---|---|---|---|---|
| 1 | 02/22 | 00:00 | 26 | 25 | 98 | 30.12 | NNE | 0 | 0.00 |
| 2 | 02/21 | 23:00 | 25 | 24 | 98 | 30.13 | NE | 0 | 0.01 |
| 3 | 02/21 | 22:00 | 24 | 23 | 98 | 30.14 | SSW | 0 | 0.00 |
| 4 | 02/21 | 21:00 | 24 | 23 | 98 | 30.14 | S | 7 | 0.03 |
| 5 | 02/21 | 20:00 | 23 | 22 | 98 | 30.17 | SSW | 6 | 0.04 |
| 6 | 02/21 | 19:00 | 22 | 21 | 98 | 30.18 | SSE | 3 | 0.05 |
| 7 | 02/21 | 18:00 | 22 | 21 | 97 | 30.18 | SSW | 4 | 0.04 |
| 8 | 02/21 | 17:00 | 22 | 21 | 96 | 30.18 | S | 5 | 0.01 |
| 9 | 02/21 | 16:00 | 21 | 20 | 96 | 30.20 | S | 9 | 0.02 |
| 10 | 02/21 | 15:00 | 20 | 19 | 96 | 30.22 | SSE | 9 | 0.02 |
| 11 | 02/21 | 14:00 | 19 | 17 | 94 | 30.25 | S | 5 | 0.02 |
| 12 | 02/21 | 13:00 | 18 | 16 | 94 | 30.30 | SSE | 3 | 0.03 |
| 13 | 02/21 | 12:00 | 17 | 15 | 92 | 30.36 | S | 8 | 0.00 |
| 14 | 02/21 | 11:00 | 16 | 9 | 75 | 30.38 | SSE | 13 | 0.00 |
| 15 | 02/21 | 10:00 | 16 | 5 | 62 | 30.39 | SE | 7 | 0.00 |
| 16 | 02/21 | 09:00 | 15 | 3 | 61 | 30.41 | WSW | 10 | 0.00 |
| 17 | 02/21 | 08:00 | 12 | 4 | 70 | 30.42 | NNW | 6 | 0.00 |
| 18 | 02/21 | 07:00 | 9 | 3 | 77 | 30.44 | NNW | 3 | 0.00 |
| 19 | 02/21 | 06:00 | 7 | 0 | 75 | 30.43 | WNW | 0 | 0.00 |
| 20 | 02/21 | 05:00 | 8 | 0 | 70 | 30.40 | NNW | 0 | 0.00 |
| 21 | 02/21 | 04:00 | 9 | -2 | 58 | 30.42 | SE | 2 | 0.00 |
| 22 | 02/21 | 03:00 | 9 | -2 | 59 | 30.42 | NNW | 2 | 0.00 |
| 23 | 02/21 | 02:00 | 6 | -3 | 65 | 30.44 | ESE | 0 | 0.00 |
| 24 | 02/21 | 01:00 | 5 | -2 | 71 | 30.45 | ESE | 0 | 0.00 |